createdAt,value
2018-04-10T00:02:22.698Z,17.20
2018-04-10T00:04:50.455Z,17.20
2018-04-10T00:07:18.172Z,17.20
2018-04-10T00:09:45.875Z,17.20
2018-04-10T00:12:13.609Z,17.20
2018-04-10T00:14:41.314Z,17.20
2018-04-10T00:17:09.103Z,17.20
2018-04-10T00:19:36.840Z,17.20
2018-04-10T00:22:05.593Z,17.20
2018-04-10T00:24:33.319Z,17.20
2018-04-10T00:27:01.089Z,17.10
2018-04-10T00:29:28.815Z,17.10
2018-04-10T00:31:56.547Z,17.20
2018-04-10T00:34:24.287Z,17.20
2018-04-10T00:36:52.004Z,17.10
2018-04-10T00:39:20.501Z,17.10
2018-04-10T00:41:48.231Z,17.10
2018-04-10T00:44:15.960Z,17.10
2018-04-10T00:46:43.700Z,17.10
2018-04-10T00:49:11.415Z,17.20
2018-04-10T00:51:39.130Z,17.10
2018-04-10T00:54:06.848Z,17.10
2018-04-10T00:56:34.619Z,17.20
2018-04-10T00:59:02.356Z,17.20
2018-04-10T01:01:30.090Z,17.10
2018-04-10T01:03:57.816Z,17.20
2018-04-10T01:06:25.531Z,17.20
2018-04-10T01:08:53.313Z,17.10
2018-04-10T01:11:21.048Z,17.20
2018-04-10T01:13:49.541Z,17.10
2018-04-10T01:16:17.284Z,17.10
2018-04-10T01:18:45.021Z,17.10
2018-04-10T01:21:12.760Z,17.10
2018-04-10T01:23:40.485Z,17.10
2018-04-10T01:26:08.986Z,17.10
2018-04-10T01:28:36.733Z,17.10
2018-04-10T01:31:04.460Z,17.10
2018-04-10T01:33:32.185Z,17.10
2018-04-10T01:35:59.924Z,17.10
2018-04-10T01:38:27.696Z,17.10
2018-04-10T01:40:56.619Z,17.10
2018-04-10T01:43:24.380Z,17.00
2018-04-10T01:45:52.107Z,17.10
2018-04-10T01:48:19.831Z,17.10
2018-04-10T01:50:47.561Z,17.10
2018-04-10T01:53:15.287Z,17.00
2018-04-10T01:55:43.024Z,17.00
2018-04-10T01:58:10.808Z,17.00
2018-04-10T02:00:38.567Z,17.00
2018-04-10T02:03:06.282Z,17.00
2018-04-10T02:05:34.773Z,17.00
2018-04-10T02:08:02.509Z,17.00
2018-04-10T02:15:36.965Z,16.90
2018-04-10T02:18:04.792Z,17.00
2018-04-10T02:20:32.550Z,17.00
2018-04-10T02:23:00.311Z,17.00
2018-04-10T02:25:28.087Z,17.00
2018-04-10T02:27:55.887Z,17.00
2018-04-10T02:30:23.702Z,16.90
2018-04-10T02:32:52.247Z,16.90
2018-04-10T02:35:20.176Z,16.90
2018-04-10T02:37:47.931Z,16.90
2018-04-10T02:40:16.551Z,16.90
2018-04-10T02:42:44.360Z,16.80
2018-04-10T02:45:12.116Z,16.90
2018-04-10T02:47:39.880Z,16.90
2018-04-10T02:50:07.653Z,16.90
2018-04-10T02:52:35.424Z,16.80
2018-04-10T02:55:03.202Z,16.80
2018-04-10T02:57:31.941Z,16.80
2018-04-10T02:59:59.753Z,16.80
2018-04-10T03:02:27.562Z,16.80
2018-04-10T03:04:55.346Z,16.70
2018-04-10T03:07:23.100Z,16.70
2018-04-10T03:09:50.889Z,16.60
2018-04-10T03:12:18.671Z,16.60
2018-04-10T03:14:46.478Z,16.60
2018-04-10T03:17:14.302Z,16.60
2018-04-10T03:19:42.105Z,16.60
2018-04-10T03:22:10.681Z,16.60
2018-04-10T03:24:38.467Z,16.50
2018-04-10T03:27:06.281Z,16.60
2018-04-10T03:29:34.035Z,16.60
2018-04-10T03:32:01.834Z,16.60
2018-04-10T03:34:29.624Z,16.60
2018-04-10T03:36:58.192Z,16.60
2018-04-10T03:39:25.989Z,16.50
2018-04-10T03:41:53.770Z,16.60
2018-04-10T03:44:21.546Z,16.60
2018-04-10T03:46:49.322Z,16.60
2018-04-10T03:49:17.268Z,16.50
2018-04-10T03:51:45.822Z,16.60
2018-04-10T03:54:13.622Z,16.50
2018-04-10T03:56:42.360Z,16.50
2018-04-10T03:59:10.505Z,16.50
2018-04-10T04:01:38.218Z,16.50
2018-04-10T04:04:06.121Z,16.50
2018-04-10T04:06:33.850Z,16.50
2018-04-10T04:09:01.585Z,16.60
2018-04-10T04:11:29.336Z,16.60
2018-04-10T04:13:57.069Z,16.60
2018-04-10T04:16:36.517Z,16.60
2018-04-10T04:19:16.096Z,16.70
2018-04-10T04:22:09.431Z,16.80
2018-04-10T04:37:44.542Z,17.30
2018-04-10T04:40:12.403Z,17.00
2018-04-10T04:42:40.118Z,16.90
2018-04-10T04:45:08.204Z,16.90
2018-04-10T04:47:37.194Z,16.90
2018-04-10T04:50:05.732Z,17.00
2018-04-10T04:52:33.483Z,17.00
2018-04-10T04:55:01.213Z,17.00
2018-04-10T04:57:28.966Z,17.10
2018-04-10T04:59:56.816Z,17.10
2018-04-10T05:02:24.549Z,17.10
2018-04-10T05:04:52.513Z,17.10
2018-04-10T05:07:20.245Z,17.10
2018-04-10T05:09:48.024Z,17.10
2018-04-10T05:12:15.795Z,17.10
2018-04-10T05:14:43.729Z,17.10
2018-04-10T05:17:11.473Z,17.10
2018-04-10T05:19:39.220Z,17.20
2018-04-10T05:22:06.988Z,17.10
2018-04-10T05:24:34.724Z,17.10
2018-04-10T05:27:02.464Z,17.10
2018-04-10T05:29:30.972Z,17.10
2018-04-10T05:31:58.680Z,17.10
2018-04-10T05:34:27.419Z,17.20
2018-04-10T05:36:55.299Z,17.20
2018-04-10T05:39:23.071Z,17.20
2018-04-10T05:41:52.109Z,17.20
2018-04-10T05:44:19.832Z,17.20
2018-04-10T05:46:47.552Z,17.20
2018-04-10T05:49:15.347Z,17.10
2018-04-10T05:51:43.125Z,17.20
2018-04-10T05:54:10.885Z,17.20
2018-04-10T05:56:38.615Z,17.20
2018-04-10T05:59:06.354Z,17.20
2018-04-10T06:01:34.162Z,17.20
2018-04-10T06:04:01.967Z,17.20
2018-04-10T06:06:30.207Z,17.10
2018-04-10T06:08:57.948Z,17.20
2018-04-10T06:11:25.699Z,17.20
2018-04-10T06:13:53.429Z,17.20
2018-04-10T06:16:21.147Z,17.20
2018-04-10T06:18:48.901Z,17.20
2018-04-10T06:21:16.674Z,17.30
2018-04-10T06:23:44.391Z,17.40
2018-04-10T06:26:12.126Z,17.40
2018-04-10T06:28:39.866Z,17.50
2018-04-10T06:31:07.602Z,17.50
2018-04-10T06:33:35.349Z,17.50
2018-04-10T06:36:03.122Z,17.50
2018-04-10T06:38:30.890Z,17.50
2018-04-10T06:40:58.629Z,17.50
2018-04-10T06:43:26.369Z,17.60
2018-04-10T06:45:54.127Z,17.60
2018-04-10T06:48:21.867Z,17.70
2018-04-10T06:50:49.601Z,17.80
2018-04-10T06:53:18.123Z,17.90
2018-04-10T06:55:45.861Z,17.80
2018-04-10T06:58:13.604Z,17.90
2018-04-10T07:00:41.320Z,17.90
2018-04-10T07:03:09.051Z,18.00
2018-04-10T07:05:37.641Z,18.00
2018-04-10T07:08:05.505Z,18.00
2018-04-10T07:10:33.996Z,18.20
2018-04-10T07:13:01.755Z,18.20
2018-04-10T07:15:29.485Z,18.40
2018-04-10T07:17:57.200Z,18.40
2018-04-10T07:20:24.915Z,18.50
2018-04-10T07:22:52.640Z,18.50
2018-04-10T07:25:23.190Z,18.70
2018-04-10T07:27:50.945Z,18.80
2018-04-10T07:30:18.658Z,19.20
2018-04-10T07:32:46.384Z,19.20
2018-04-10T07:35:14.105Z,19.20
2018-04-10T07:37:41.859Z,19.30
2018-04-10T07:40:09.601Z,19.30
2018-04-10T07:42:37.340Z,19.20
2018-04-10T07:45:05.064Z,19.40
2018-04-10T07:47:33.915Z,19.40
2018-04-10T07:50:01.631Z,19.40
2018-04-10T07:52:29.365Z,19.40
2018-04-10T07:54:57.086Z,19.40
2018-04-10T07:57:24.825Z,19.40
2018-04-10T07:59:53.317Z,19.20
2018-04-10T08:02:24.440Z,19.20
2018-04-10T08:04:52.200Z,19.20
2018-04-10T08:07:19.915Z,19.20
2018-04-10T08:09:47.739Z,19.30
2018-04-10T08:12:15.497Z,19.20
2018-04-10T08:14:43.237Z,19.10
2018-04-10T08:17:10.972Z,19.10
2018-04-10T08:19:38.689Z,19.10
2018-04-10T08:22:06.462Z,19.10
2018-04-10T08:24:34.177Z,19.30
2018-04-10T08:27:01.910Z,19.30
2018-04-10T08:29:29.635Z,19.20
2018-04-10T08:31:57.348Z,19.20
2018-04-10T08:34:25.099Z,19.20
2018-04-10T08:36:52.823Z,19.30
2018-04-10T08:39:20.553Z,19.40
2018-04-10T08:41:49.131Z,19.30
2018-04-10T08:44:16.883Z,19.20
2018-04-10T08:46:44.685Z,19.20
2018-04-10T08:49:12.427Z,19.30
2018-04-10T08:51:40.168Z,19.40
2018-04-10T08:54:07.949Z,19.50
2018-04-10T08:56:35.687Z,19.50
2018-04-10T08:59:03.432Z,19.40
2018-04-10T09:01:31.330Z,19.50
2018-04-10T09:03:59.084Z,19.50
2018-04-10T09:06:26.796Z,19.40
2018-04-10T09:08:54.557Z,19.40
2018-04-10T09:11:23.764Z,19.50
2018-04-10T09:13:51.519Z,19.40
2018-04-10T09:16:19.235Z,19.50
2018-04-10T09:18:46.987Z,19.60
2018-04-10T09:21:14.711Z,19.60
2018-04-10T09:23:42.418Z,19.60
2018-04-10T09:26:10.158Z,19.70
2018-04-10T09:28:37.876Z,19.80
2018-04-10T09:31:05.603Z,19.70
2018-04-10T09:33:33.338Z,19.80
2018-04-10T09:36:01.100Z,19.70
2018-04-10T09:38:28.871Z,19.80
2018-04-10T09:40:56.617Z,19.70
2018-04-10T09:43:24.371Z,19.60
2018-04-10T09:45:52.101Z,19.70
2018-04-10T09:48:19.824Z,19.70
2018-04-10T09:50:47.560Z,19.70
2018-04-10T09:53:15.308Z,19.80
2018-04-10T09:55:43.068Z,19.80
2018-04-10T09:58:10.793Z,19.90
2018-04-10T10:05:47.152Z,20.00
2018-04-10T10:08:14.879Z,20.00
2018-04-10T10:10:43.273Z,20.10
2018-04-10T10:13:11.818Z,20.20
2018-04-10T10:15:39.566Z,20.10
2018-04-10T10:18:07.311Z,20.30
2018-04-10T10:20:35.055Z,20.30
2018-04-10T10:23:03.067Z,20.30
2018-04-10T10:25:31.009Z,20.30
2018-04-10T10:27:58.769Z,20.20
2018-04-10T10:30:26.512Z,20.20
2018-04-10T10:32:54.222Z,20.30
2018-04-10T10:35:21.979Z,20.40
2018-04-10T10:37:49.708Z,20.40
2018-04-10T10:40:17.518Z,20.40
2018-04-10T10:42:45.339Z,20.40
2018-04-10T10:45:13.139Z,20.40
2018-04-10T10:47:40.874Z,20.30
2018-04-10T10:50:08.643Z,20.30
2018-04-10T10:52:36.393Z,20.40
2018-04-10T10:55:04.283Z,20.30
2018-04-10T10:57:32.028Z,20.20
2018-04-10T10:59:59.758Z,20.20
2018-04-10T11:02:27.506Z,20.20
2018-04-10T11:04:55.249Z,20.20
2018-04-10T11:07:23.009Z,20.30
2018-04-10T11:09:50.789Z,20.40
2018-04-10T11:12:18.541Z,20.30
2018-04-10T11:14:46.373Z,20.30
2018-04-10T11:17:14.125Z,20.40
2018-04-10T11:19:41.878Z,20.40
2018-04-10T11:22:09.608Z,20.40
2018-04-10T11:24:37.366Z,20.40
2018-04-10T11:27:05.090Z,20.40
2018-04-10T11:29:33.551Z,20.40
2018-04-10T11:32:01.277Z,20.40
2018-04-10T11:34:29.021Z,20.40
2018-04-10T11:36:56.723Z,20.40
2018-04-10T11:39:24.460Z,20.60
2018-04-10T11:41:52.490Z,20.60
2018-04-10T11:44:21.015Z,20.60
2018-04-10T11:46:48.739Z,20.50
2018-04-10T11:49:16.442Z,20.50
2018-04-10T11:51:46.429Z,20.40
2018-04-10T11:54:14.300Z,20.40
2018-04-10T11:56:42.064Z,20.40
2018-04-10T11:59:09.805Z,20.40
2018-04-10T12:01:37.580Z,20.40
2018-04-10T12:04:05.359Z,20.30
2018-04-10T12:06:34.348Z,20.40
2018-04-10T12:09:02.131Z,20.40
2018-04-10T12:11:29.985Z,20.40
2018-04-10T12:13:58.461Z,20.30
2018-04-10T12:16:26.864Z,20.20
2018-04-10T12:18:54.572Z,20.30
2018-04-10T12:21:22.307Z,20.30
2018-04-10T12:23:50.019Z,20.30
2018-04-10T12:26:17.717Z,20.50
2018-04-10T12:28:45.486Z,20.60
2018-04-10T12:31:13.194Z,20.50
2018-04-10T12:33:40.983Z,20.40
2018-04-10T12:36:09.738Z,20.40
2018-04-10T12:38:37.521Z,20.30
2018-04-10T12:41:05.805Z,20.20
2018-04-10T12:43:34.269Z,20.30
2018-04-10T12:46:02.029Z,20.20
2018-04-10T12:48:29.928Z,20.20
2018-04-10T12:50:57.728Z,20.20
2018-04-10T12:53:25.649Z,20.20
2018-04-10T12:55:53.416Z,20.30
2018-04-10T12:58:23.982Z,20.40
2018-04-10T13:01:13.048Z,20.50
2018-04-10T13:03:41.233Z,20.50
2018-04-10T13:06:09.936Z,20.60
2018-04-10T13:08:37.717Z,20.60
2018-04-10T13:11:05.461Z,20.50
2018-04-10T13:13:42.191Z,20.60
2018-04-10T13:16:10.006Z,20.60
2018-04-10T13:18:37.854Z,20.60
2018-04-10T13:21:34.555Z,20.50
2018-04-10T13:27:06.128Z,20.40
2018-04-10T13:29:33.896Z,20.60
2018-04-10T13:32:04.071Z,20.70
2018-04-10T13:34:31.900Z,20.50
2018-04-10T13:37:07.154Z,20.50
2018-04-10T13:39:34.917Z,20.40
2018-04-10T13:42:02.693Z,20.40
2018-04-10T13:44:30.555Z,20.20
2018-04-10T13:46:58.373Z,20.20
2018-04-10T13:49:26.308Z,20.30
2018-04-10T13:51:54.118Z,20.30
2018-04-10T13:54:24.759Z,20.20
2018-04-10T13:56:56.862Z,20.20
2018-04-10T13:59:25.587Z,20.20
2018-04-10T14:01:55.428Z,20.30
2018-04-10T14:04:38.759Z,20.20
2018-04-10T14:07:07.566Z,20.20
2018-04-10T14:09:37.673Z,20.20
2018-04-10T14:12:05.717Z,20.10
2018-04-10T14:14:38.061Z,20.10
2018-04-10T14:17:07.989Z,20.10
2018-04-10T14:22:16.863Z,20.10
2018-04-10T14:29:00.677Z,20.20
2018-04-10T14:31:28.486Z,20.00
2018-04-10T14:33:56.320Z,20.00
2018-04-10T14:36:33.359Z,19.90
2018-04-10T14:39:01.940Z,19.90
2018-04-10T14:41:36.794Z,19.90
2018-04-10T14:44:05.355Z,19.80
2018-04-10T14:46:33.139Z,19.70
2018-04-10T14:49:00.951Z,19.80
2018-04-10T14:51:28.755Z,19.80
2018-04-10T14:54:25.949Z,19.80
2018-04-10T14:56:55.144Z,19.80
2018-04-10T14:59:51.599Z,19.80
2018-04-10T15:02:22.745Z,19.70
2018-04-10T15:04:52.948Z,19.60
2018-04-10T15:19:37.143Z,19.60
2018-04-10T15:22:04.962Z,19.50
2018-04-10T15:24:32.720Z,19.50
2018-04-10T15:27:01.373Z,19.50
2018-04-10T15:29:29.127Z,19.50
2018-04-10T15:31:58.016Z,19.50
2018-04-10T15:34:25.717Z,19.60
2018-04-10T15:36:53.442Z,19.50
2018-04-10T15:39:21.599Z,19.50
2018-04-10T15:41:51.143Z,19.50
2018-04-10T15:44:25.335Z,19.40
2018-04-10T15:46:53.129Z,19.40
2018-04-10T15:49:21.630Z,19.40
2018-04-10T15:51:53.837Z,19.40
2018-04-10T15:54:21.644Z,19.40
2018-04-10T15:56:49.410Z,19.50
2018-04-10T15:59:24.231Z,19.50
2018-04-10T16:02:24.831Z,19.50
2018-04-10T16:04:52.627Z,19.60
2018-04-10T16:07:21.095Z,19.70
2018-04-10T16:09:49.014Z,19.60
2018-04-10T16:12:20.987Z,19.50
2018-04-10T16:28:07.897Z,19.50
2018-04-10T16:30:36.645Z,19.60
2018-04-10T16:33:04.524Z,19.60
2018-04-10T16:35:32.476Z,19.60
2018-04-10T16:38:00.308Z,19.60
2018-04-10T16:40:30.685Z,19.50
2018-04-10T16:43:02.586Z,19.40
2018-04-10T16:45:31.260Z,19.40
2018-04-10T16:50:45.990Z,19.30
2018-04-10T16:53:13.786Z,19.30
2018-04-10T16:55:43.929Z,19.30
2018-04-10T16:58:11.709Z,19.30
2018-04-10T17:00:39.583Z,19.40
2018-04-10T17:03:08.544Z,19.40
2018-04-10T17:05:36.435Z,19.40
2018-04-10T17:08:04.309Z,19.50
2018-04-10T17:10:32.141Z,19.40
2018-04-10T17:13:00.802Z,19.50
2018-04-10T17:15:29.244Z,19.50
2018-04-10T17:17:57.048Z,19.60
2018-04-10T17:20:25.098Z,19.60
2018-04-10T17:22:54.378Z,19.60
2018-04-10T17:25:22.138Z,19.60
2018-04-10T17:28:04.420Z,19.60
2018-04-10T17:30:34.878Z,19.70
2018-04-10T17:33:02.707Z,19.60
2018-04-10T17:35:30.703Z,19.60
2018-04-10T17:38:33.226Z,19.60
2018-04-10T17:41:04.036Z,19.50
2018-04-10T17:43:32.006Z,19.50
2018-04-10T17:45:59.835Z,19.50
2018-04-10T17:48:27.769Z,19.40
2018-04-10T17:50:55.621Z,19.40
2018-04-10T17:53:26.100Z,19.40
2018-04-10T17:55:53.938Z,19.40
2018-04-10T17:58:25.608Z,19.50
2018-04-10T18:00:53.502Z,19.50
2018-04-10T18:03:26.157Z,19.40
2018-04-10T18:05:53.963Z,19.30
2018-04-10T18:08:21.709Z,19.30
2018-04-10T18:10:49.492Z,19.30
2018-04-10T18:13:17.382Z,19.30
2018-04-10T18:15:45.093Z,19.20
2018-04-10T18:18:13.550Z,19.20
2018-04-10T18:20:41.475Z,19.20
2018-04-10T18:23:10.058Z,19.10
2018-04-10T18:25:38.057Z,19.10
2018-04-10T18:28:05.917Z,19.10
2018-04-10T18:30:33.914Z,19.10
2018-04-10T18:33:01.996Z,19.10
2018-04-10T18:35:29.881Z,19.00
2018-04-10T18:37:57.779Z,19.00
2018-04-10T18:40:25.716Z,18.90
2018-04-10T18:42:53.644Z,18.90
2018-04-10T18:45:21.596Z,18.90
2018-04-10T18:47:51.923Z,18.90
2018-04-10T18:50:20.210Z,18.90
2018-04-10T18:52:48.214Z,18.80
2018-04-10T18:55:16.952Z,18.80
2018-04-10T18:57:45.010Z,18.80
2018-04-10T19:00:13.628Z,18.70
2018-04-10T19:02:42.221Z,18.70
2018-04-10T19:05:10.154Z,18.70
2018-04-10T19:07:37.940Z,18.70
2018-04-10T19:10:05.997Z,18.70
2018-04-10T19:12:33.959Z,18.70
2018-04-10T19:15:03.142Z,18.70
2018-04-10T19:17:32.703Z,18.60
2018-04-10T19:20:02.746Z,18.60
2018-04-10T19:22:32.099Z,18.60
2018-04-10T19:25:01.888Z,18.60
2018-04-10T19:27:30.617Z,18.60
2018-04-10T19:29:59.837Z,18.60
2018-04-10T19:32:28.203Z,18.50
2018-04-10T19:34:57.946Z,18.50
2018-04-10T19:37:27.136Z,18.50
2018-04-10T19:39:55.521Z,18.50
2018-04-10T19:42:24.778Z,18.40
2018-04-10T19:44:54.317Z,18.40
2018-04-10T19:47:22.464Z,18.40
2018-04-10T19:49:50.846Z,18.40
2018-04-10T19:52:18.784Z,18.40
2018-04-10T19:54:47.191Z,18.40
2018-04-10T19:57:18.206Z,18.40
2018-04-10T19:59:46.836Z,18.30
2018-04-10T20:02:14.576Z,18.30
2018-04-10T20:04:42.458Z,18.30
2018-04-10T20:07:10.265Z,18.30
2018-04-10T20:09:38.113Z,18.20
2018-04-10T20:12:06.075Z,18.20
2018-04-10T20:14:33.857Z,18.20
2018-04-10T20:17:01.700Z,18.20
2018-04-10T20:19:29.489Z,18.20
2018-04-10T20:21:57.323Z,18.20
2018-04-10T20:24:25.123Z,18.10
2018-04-10T20:26:52.939Z,18.10
2018-04-10T20:29:20.759Z,18.10
2018-04-10T20:31:48.542Z,18.10
2018-04-10T20:34:16.420Z,18.10
2018-04-10T20:36:44.273Z,18.10
2018-04-10T20:39:12.047Z,18.10
2018-04-10T20:41:39.802Z,18.10
2018-04-10T20:44:07.613Z,18.10
2018-04-10T20:46:35.405Z,18.10
2018-04-10T20:49:03.262Z,18.00
2018-04-10T20:51:31.564Z,18.00
2018-04-10T20:53:59.304Z,18.10
2018-04-10T20:56:27.291Z,18.00
2018-04-10T20:58:55.101Z,18.00
2018-04-10T21:01:22.879Z,18.00
2018-04-10T21:03:50.717Z,18.10
2018-04-10T21:06:18.504Z,18.10
2018-04-10T21:08:46.336Z,18.10
2018-04-10T21:11:14.149Z,18.10
2018-04-10T21:13:42.010Z,18.10
2018-04-10T21:16:09.855Z,18.10
2018-04-10T21:18:37.708Z,18.10
2018-04-10T21:21:05.550Z,18.00
2018-04-10T21:23:33.305Z,18.00
2018-04-10T21:26:01.150Z,18.00
2018-04-10T21:28:28.974Z,18.00
2018-04-10T21:30:56.839Z,17.90
2018-04-10T21:33:24.617Z,17.90
2018-04-10T21:35:52.417Z,17.90
2018-04-10T21:38:20.281Z,17.90
2018-04-10T21:40:48.048Z,17.90
2018-04-10T21:43:21.518Z,17.90
2018-04-10T21:45:49.410Z,17.90
2018-04-10T21:48:18.061Z,17.90
2018-04-10T21:50:45.908Z,17.80
2018-04-10T21:53:13.784Z,17.80
2018-04-10T21:55:41.681Z,17.80
2018-04-10T21:58:10.170Z,17.80
2018-04-10T22:00:38.052Z,17.80
2018-04-10T22:03:05.949Z,17.70
2018-04-10T22:05:33.853Z,17.70
2018-04-10T22:08:01.713Z,17.70
2018-04-10T22:10:29.580Z,17.70
2018-04-10T22:12:57.437Z,17.70
2018-04-10T22:15:26.054Z,17.70
2018-04-10T22:17:53.855Z,17.60
2018-04-10T22:20:21.725Z,17.60
2018-04-10T22:22:49.557Z,17.60
2018-04-10T22:25:17.323Z,17.60
2018-04-10T22:27:45.106Z,17.50
2018-04-10T22:30:12.943Z,17.50
2018-04-10T22:32:41.626Z,17.50
2018-04-10T22:35:09.370Z,17.50
2018-04-10T22:37:37.253Z,17.50
2018-04-10T22:40:05.102Z,17.40
2018-04-10T22:42:33.375Z,17.40
2018-04-10T22:45:01.976Z,17.30
2018-04-10T22:47:29.774Z,17.30
2018-04-10T22:49:57.565Z,17.20
2018-04-10T22:52:25.365Z,17.10
2018-04-10T22:54:54.150Z,17.00
2018-04-10T22:57:21.907Z,17.00
2018-04-10T22:59:49.753Z,17.00
2018-04-10T23:02:17.529Z,17.00
2018-04-10T23:04:45.349Z,17.00
2018-04-10T23:07:13.161Z,17.00
2018-04-10T23:09:40.935Z,17.00
2018-04-10T23:12:08.767Z,17.00
2018-04-10T23:14:36.600Z,16.90
2018-04-10T23:17:04.418Z,16.90
2018-04-10T23:19:32.187Z,16.90
2018-04-10T23:22:00.025Z,16.90
2018-04-10T23:24:28.596Z,16.80
2018-04-10T23:26:56.404Z,16.80
2018-04-10T23:29:24.168Z,16.80
2018-04-10T23:31:51.974Z,16.90
2018-04-10T23:34:19.818Z,16.90
2018-04-10T23:36:47.694Z,16.80
2018-04-10T23:39:15.487Z,16.80
2018-04-10T23:41:43.329Z,16.80
2018-04-10T23:44:11.923Z,16.70
2018-04-10T23:46:39.698Z,16.70
2018-04-10T23:49:07.453Z,16.70
2018-04-10T23:51:35.236Z,16.70
2018-04-10T23:54:02.987Z,16.70
2018-04-10T23:56:31.204Z,16.70
2018-04-10T23:58:58.973Z,16.70
